QFA1003 YMML-YMHB
Flight info
| Callsign | QFA1003 |
|---|---|
| Flight time | 0h 59m |
| Altitude | 35000 |
| Route | ML H169 IRSOM V33 TASUM |
| Aircraft | B738/M-SDE2E3FGHIRWXY/LB1 |
Departure
| Time | 2026-04-26 06:29 |
|---|---|
| Airport | Melbourne Airport (YMML) |
Arrival
| Time | 2026-04-26 07:28 |
|---|---|
| Airport | Hobart International Airport (YMHB) |
| Time | Latitude | Longitude | Altitude | Speed | Heading |
|---|---|---|---|---|---|
| 2026-04-26 06:11 | -37.66651 | 144.84996 | 411 ft | 0 kts | 262° |
| 2026-04-26 06:19 | -37.66651 | 144.84999 | 411 ft | 2 kts | 262° |
| 2026-04-26 06:19 | -37.66649 | 144.85017 | 412 ft | 2 kts | 262° |
| 2026-04-26 06:19 | -37.66647 | 144.85036 | 413 ft | 2 kts | 262° |
| 2026-04-26 06:20 | -37.66647 | 144.85056 | 413 ft | 2 kts | 292° |
| 2026-04-26 06:20 | -37.66655 | 144.85071 | 413 ft | 2 kts | 321° |
| 2026-04-26 06:20 | -37.66667 | 144.85078 | 413 ft | 0 kts | 348° |
| 2026-04-26 06:20 | -37.66673 | 144.85080 | 413 ft | 1 kts | 352° |
| 2026-04-26 06:21 | -37.66674 | 144.85080 | 413 ft | 0 kts | 352° |
| 2026-04-26 06:22 | -37.66660 | 144.85077 | 413 ft | 5 kts | 349° |
| 2026-04-26 06:22 | -37.66573 | 144.85063 | 412 ft | 15 kts | 349° |
| 2026-04-26 06:22 | -37.66542 | 144.84949 | 409 ft | 20 kts | 253° |
| 2026-04-26 06:23 | -37.66623 | 144.84775 | 402 ft | 25 kts | 246° |
| 2026-04-26 06:23 | -37.66660 | 144.84547 | 389 ft | 29 kts | 263° |
| 2026-04-26 06:23 | -37.66688 | 144.84300 | 387 ft | 14 kts | 263° |
| 2026-04-26 06:23 | -37.66690 | 144.84288 | 387 ft | 0 kts | 254° |
| 2026-04-26 06:24 | -37.66703 | 144.84230 | 389 ft | 12 kts | 249° |
| 2026-04-26 06:24 | -37.66814 | 144.84195 | 391 ft | 25 kts | 170° |
| 2026-04-26 06:24 | -37.67011 | 144.84235 | 387 ft | 29 kts | 168° |
| 2026-04-26 06:25 | -37.67162 | 144.84264 | 383 ft | 15 kts | 172° |
| 2026-04-26 06:25 | -37.67272 | 144.84282 | 381 ft | 15 kts | 172° |
| 2026-04-26 06:25 | -37.67382 | 144.84302 | 380 ft | 17 kts | 172° |
| 2026-04-26 06:25 | -37.67557 | 144.84337 | 377 ft | 29 kts | 173° |
| 2026-04-26 06:26 | -37.67761 | 144.84369 | 372 ft | 29 kts | 186° |
| 2026-04-26 06:26 | -37.67859 | 144.84227 | 369 ft | 0 kts | 262° |
| 2026-04-26 06:26 | -37.67859 | 144.84225 | 369 ft | 1 kts | 262° |
| 2026-04-26 06:26 | -37.67870 | 144.84125 | 367 ft | 0 kts | 262° |
| 2026-04-26 06:27 | -37.67876 | 144.84067 | 366 ft | 15 kts | 262° |
| 2026-04-26 06:27 | -37.67838 | 144.83966 | 366 ft | 12 kts | 345° |
| 2026-04-26 06:28 | -37.67819 | 144.83962 | 367 ft | 0 kts | 351° |
| 2026-04-26 06:28 | -37.67817 | 144.83962 | 367 ft | 2 kts | 351° |
| 2026-04-26 06:28 | -37.67532 | 144.83908 | 376 ft | 84 kts | 352° |
| 2026-04-26 06:29 | -37.66683 | 144.83749 | 407 ft | 158 kts | 352° |
| 2026-04-26 06:29 | -37.65565 | 144.83539 | 1296 ft | 163 kts | 352° |
| 2026-04-26 06:29 | -37.64498 | 144.83337 | 2286 ft | 157 kts | 352° |
| 2026-04-26 06:29 | -37.63356 | 144.83124 | 2697 ft | 173 kts | 351° |
| 2026-04-26 06:30 | -37.62123 | 144.82887 | 3138 ft | 187 kts | 351° |
| 2026-04-26 06:30 | -37.60762 | 144.82625 | 3538 ft | 206 kts | 351° |
| 2026-04-26 06:30 | -37.59292 | 144.82410 | 3996 ft | 223 kts | 359° |
| 2026-04-26 06:30 | -37.57718 | 144.82863 | 4493 ft | 242 kts | 21° |
| 2026-04-26 06:31 | -37.56191 | 144.83893 | 4994 ft | 257 kts | 26° |
| 2026-04-26 06:31 | -37.54583 | 144.85013 | 5705 ft | 264 kts | 25° |
| 2026-04-26 06:31 | -37.52959 | 144.86060 | 6465 ft | 267 kts | 23° |
| 2026-04-26 06:31 | -37.51271 | 144.87097 | 7275 ft | 269 kts | 23° |
| 2026-04-26 06:32 | -37.49585 | 144.88121 | 8021 ft | 274 kts | 22° |
| 2026-04-26 06:32 | -37.47863 | 144.89180 | 8826 ft | 277 kts | 25° |
| 2026-04-26 06:32 | -37.46347 | 144.90651 | 9586 ft | 287 kts | 45° |
| 2026-04-26 06:32 | -37.45319 | 144.92816 | 10415 ft | 295 kts | 65° |
| 2026-04-26 06:33 | -37.44781 | 144.95372 | 10933 ft | 314 kts | 78° |
| 2026-04-26 06:33 | -37.44775 | 144.98213 | 11422 ft | 335 kts | 96° |
| 2026-04-26 06:33 | -37.45645 | 145.01016 | 11853 ft | 358 kts | 121° |
| 2026-04-26 06:33 | -37.47378 | 145.03291 | 12303 ft | 375 kts | 144° |
| 2026-04-26 06:34 | -37.49762 | 145.04752 | 13013 ft | 381 kts | 164° |
| 2026-04-26 06:34 | -37.52404 | 145.05205 | 13664 ft | 387 kts | 182° |
| 2026-04-26 06:34 | -37.55080 | 145.04929 | 14471 ft | 388 kts | 191° |
| 2026-04-26 06:34 | -37.57751 | 145.04387 | 15224 ft | 392 kts | 193° |
| 2026-04-26 06:35 | -37.60461 | 145.03773 | 15922 ft | 399 kts | 193° |
| 2026-04-26 06:35 | -37.63202 | 145.03174 | 16713 ft | 403 kts | 192° |
| 2026-04-26 06:35 | -37.66002 | 145.02603 | 17463 ft | 407 kts | 192° |
| 2026-04-26 06:35 | -37.68852 | 145.02060 | 18167 ft | 413 kts | 191° |
| 2026-04-26 06:36 | -37.71703 | 145.01543 | 18933 ft | 415 kts | 191° |
| 2026-04-26 06:36 | -37.74561 | 145.01059 | 19714 ft | 416 kts | 190° |
| 2026-04-26 06:36 | -37.77449 | 145.00615 | 20463 ft | 418 kts | 189° |
| 2026-04-26 06:36 | -37.80318 | 145.00192 | 21095 ft | 422 kts | 189° |
| 2026-04-26 06:37 | -37.83276 | 144.99764 | 21757 ft | 425 kts | 189° |
| 2026-04-26 06:37 | -37.86170 | 144.99347 | 22425 ft | 426 kts | 189° |
| 2026-04-26 06:37 | -37.89159 | 144.98910 | 23064 ft | 427 kts | 189° |
| 2026-04-26 06:37 | -37.92085 | 144.98483 | 23665 ft | 431 kts | 189° |
| 2026-04-26 06:38 | -37.95093 | 144.98219 | 24223 ft | 436 kts | 184° |
| 2026-04-26 06:38 | -37.98114 | 144.98402 | 24883 ft | 440 kts | 175° |
| 2026-04-26 06:38 | -38.01160 | 144.99171 | 25423 ft | 445 kts | 167° |
| 2026-04-26 06:38 | -38.04139 | 145.00290 | 25941 ft | 449 kts | 164° |
| 2026-04-26 06:39 | -38.07097 | 145.01569 | 26540 ft | 451 kts | 162° |
| 2026-04-26 06:39 | -38.10027 | 145.02899 | 27110 ft | 452 kts | 162° |
| 2026-04-26 06:39 | -38.13010 | 145.04274 | 27535 ft | 457 kts | 162° |
| 2026-04-26 06:39 | -38.16005 | 145.05653 | 28054 ft | 459 kts | 162° |
| 2026-04-26 06:40 | -38.19035 | 145.07040 | 28479 ft | 463 kts | 162° |
| 2026-04-26 06:40 | -38.22071 | 145.08421 | 28977 ft | 465 kts | 162° |
| 2026-04-26 06:40 | -38.25122 | 145.09804 | 29492 ft | 466 kts | 162° |
| 2026-04-26 06:40 | -38.28174 | 145.11183 | 29965 ft | 467 kts | 162° |
| 2026-04-26 06:41 | -38.31231 | 145.12560 | 30604 ft | 465 kts | 162° |
| 2026-04-26 06:41 | -38.34283 | 145.13930 | 31227 ft | 462 kts | 162° |
| 2026-04-26 06:41 | -38.37302 | 145.15285 | 31894 ft | 458 kts | 162° |
| 2026-04-26 06:41 | -38.40292 | 145.16628 | 32554 ft | 454 kts | 162° |
| 2026-04-26 06:42 | -38.43224 | 145.17943 | 33105 ft | 451 kts | 162° |
| 2026-04-26 06:42 | -38.46204 | 145.19276 | 33580 ft | 450 kts | 162° |
| 2026-04-26 06:42 | -38.49215 | 145.20628 | 33986 ft | 451 kts | 162° |
| 2026-04-26 06:42 | -38.52164 | 145.21951 | 34256 ft | 455 kts | 162° |
| 2026-04-26 06:43 | -38.55169 | 145.23283 | 34888 ft | 450 kts | 162° |
| 2026-04-26 06:43 | -38.58160 | 145.24602 | 35123 ft | 448 kts | 162° |
| 2026-04-26 06:43 | -38.61109 | 145.25897 | 35140 ft | 443 kts | 163° |
| 2026-04-26 06:44 | -38.66963 | 145.28467 | 35137 ft | 441 kts | 163° |
| 2026-04-26 06:44 | -38.72775 | 145.31021 | 35138 ft | 443 kts | 163° |
| 2026-04-26 06:45 | -38.78637 | 145.33609 | 35134 ft | 444 kts | 163° |
| 2026-04-26 06:45 | -38.84430 | 145.36171 | 35142 ft | 444 kts | 163° |
| 2026-04-26 06:46 | -38.90332 | 145.38792 | 35140 ft | 444 kts | 163° |
| 2026-04-26 06:46 | -38.96144 | 145.41377 | 35145 ft | 443 kts | 162° |
| 2026-04-26 06:47 | -39.02017 | 145.43990 | 35145 ft | 446 kts | 162° |
| 2026-04-26 06:47 | -39.07882 | 145.46605 | 35132 ft | 445 kts | 162° |
| 2026-04-26 06:48 | -39.13745 | 145.49222 | 35135 ft | 446 kts | 163° |
| 2026-04-26 06:48 | -39.19592 | 145.51837 | 35141 ft | 447 kts | 163° |
| 2026-04-26 06:49 | -39.25475 | 145.54475 | 35137 ft | 447 kts | 163° |
| 2026-04-26 06:49 | -39.31339 | 145.57111 | 35138 ft | 447 kts | 163° |
| 2026-04-26 06:50 | -39.37206 | 145.59749 | 35146 ft | 447 kts | 163° |
| 2026-04-26 06:50 | -39.43100 | 145.62404 | 35146 ft | 448 kts | 163° |
| 2026-04-26 06:51 | -39.48999 | 145.65067 | 35145 ft | 449 kts | 162° |
| 2026-04-26 06:51 | -39.57809 | 145.69055 | 35137 ft | 450 kts | 162° |
| 2026-04-26 06:52 | -39.63721 | 145.71736 | 35134 ft | 448 kts | 162° |
| 2026-04-26 06:52 | -39.69624 | 145.74419 | 35134 ft | 450 kts | 162° |
| 2026-04-26 06:53 | -39.75526 | 145.77104 | 35139 ft | 450 kts | 162° |
| 2026-04-26 06:53 | -39.81451 | 145.79808 | 35141 ft | 451 kts | 162° |
| 2026-04-26 06:54 | -39.87357 | 145.82504 | 35130 ft | 451 kts | 162° |
| 2026-04-26 06:54 | -39.93299 | 145.85222 | 35138 ft | 449 kts | 162° |
| 2026-04-26 06:55 | -39.99187 | 145.87921 | 35137 ft | 449 kts | 162° |
| 2026-04-26 06:55 | -40.05101 | 145.90645 | 35131 ft | 450 kts | 162° |
| 2026-04-26 06:56 | -40.11043 | 145.93401 | 35132 ft | 452 kts | 162° |
| 2026-04-26 06:56 | -40.16957 | 145.96153 | 35130 ft | 452 kts | 162° |
| 2026-04-26 06:57 | -40.22883 | 145.98906 | 35127 ft | 452 kts | 162° |
| 2026-04-26 06:57 | -40.28822 | 146.01677 | 35121 ft | 453 kts | 162° |
| 2026-04-26 06:58 | -40.34778 | 146.04460 | 35124 ft | 453 kts | 162° |
| 2026-04-26 06:58 | -40.40736 | 146.07246 | 35109 ft | 454 kts | 162° |
| 2026-04-26 06:59 | -40.46727 | 146.10054 | 35113 ft | 456 kts | 162° |
| 2026-04-26 06:59 | -40.52674 | 146.12848 | 35112 ft | 456 kts | 162° |
| 2026-04-26 07:00 | -40.58620 | 146.15645 | 35112 ft | 455 kts | 162° |
| 2026-04-26 07:00 | -40.64623 | 146.18471 | 35106 ft | 456 kts | 162° |
| 2026-04-26 07:01 | -40.70602 | 146.21292 | 35105 ft | 457 kts | 162° |
| 2026-04-26 07:01 | -40.76587 | 146.24126 | 35106 ft | 457 kts | 162° |
| 2026-04-26 07:02 | -40.82553 | 146.26956 | 35097 ft | 456 kts | 162° |
| 2026-04-26 07:02 | -40.88583 | 146.29823 | 35099 ft | 457 kts | 162° |
| 2026-04-26 07:03 | -40.94554 | 146.32665 | 35103 ft | 457 kts | 162° |
| 2026-04-26 07:03 | -41.00581 | 146.35536 | 35096 ft | 457 kts | 162° |
| 2026-04-26 07:04 | -41.06571 | 146.38396 | 35100 ft | 459 kts | 163° |
| 2026-04-26 07:04 | -41.12598 | 146.41281 | 35105 ft | 459 kts | 163° |
| 2026-04-26 07:05 | -41.18621 | 146.44267 | 35104 ft | 459 kts | 160° |
| 2026-04-26 07:05 | -41.24438 | 146.47790 | 35104 ft | 461 kts | 156° |
| 2026-04-26 07:06 | -41.30240 | 146.51558 | 35104 ft | 461 kts | 156° |
| 2026-04-26 07:06 | -41.36052 | 146.55322 | 35107 ft | 461 kts | 157° |
| 2026-04-26 07:07 | -41.41832 | 146.59027 | 35097 ft | 461 kts | 157° |
| 2026-04-26 07:07 | -41.47637 | 146.62729 | 35103 ft | 462 kts | 157° |
| 2026-04-26 07:08 | -41.53465 | 146.66440 | 35100 ft | 463 kts | 156° |
| 2026-04-26 07:08 | -41.59309 | 146.70163 | 35110 ft | 462 kts | 156° |
| 2026-04-26 07:09 | -41.65134 | 146.73894 | 35119 ft | 464 kts | 156° |
| 2026-04-26 07:09 | -41.70973 | 146.77653 | 34868 ft | 466 kts | 156° |
| 2026-04-26 07:10 | -41.79955 | 146.83456 | 31544 ft | 497 kts | 156° |
| 2026-04-26 07:11 | -41.86290 | 146.87558 | 28136 ft | 520 kts | 156° |
| 2026-04-26 07:11 | -41.89537 | 146.89668 | 26741 ft | 518 kts | 156° |
| 2026-04-26 07:11 | -41.92754 | 146.91768 | 25622 ft | 511 kts | 156° |
| 2026-04-26 07:11 | -41.95905 | 146.93829 | 24908 ft | 495 kts | 156° |
| 2026-04-26 07:12 | -41.98980 | 146.95844 | 24188 ft | 482 kts | 156° |
| 2026-04-26 07:12 | -42.01949 | 146.97789 | 23231 ft | 476 kts | 157° |
| 2026-04-26 07:12 | -42.04902 | 146.99724 | 22263 ft | 470 kts | 157° |
| 2026-04-26 07:12 | -42.07830 | 147.01639 | 21320 ft | 465 kts | 157° |
| 2026-04-26 07:13 | -42.10716 | 147.03528 | 20338 ft | 461 kts | 157° |
| 2026-04-26 07:13 | -42.13556 | 147.05418 | 19415 ft | 455 kts | 155° |
| 2026-04-26 07:13 | -42.16284 | 147.07498 | 18412 ft | 454 kts | 150° |
| 2026-04-26 07:13 | -42.18846 | 147.09926 | 17430 ft | 451 kts | 144° |
| 2026-04-26 07:14 | -42.21230 | 147.12631 | 16859 ft | 437 kts | 140° |
| 2026-04-26 07:14 | -42.23408 | 147.15349 | 16391 ft | 422 kts | 138° |
| 2026-04-26 07:14 | -42.25499 | 147.18071 | 15992 ft | 406 kts | 137° |
| 2026-04-26 07:14 | -42.27463 | 147.20662 | 15665 ft | 390 kts | 137° |
| 2026-04-26 07:15 | -42.29382 | 147.23183 | 15355 ft | 375 kts | 137° |
| 2026-04-26 07:15 | -42.31227 | 147.25588 | 15016 ft | 364 kts | 138° |
| 2026-04-26 07:15 | -42.33052 | 147.27942 | 14444 ft | 361 kts | 138° |
| 2026-04-26 07:15 | -42.34855 | 147.30252 | 13864 ft | 359 kts | 138° |
| 2026-04-26 07:16 | -42.36673 | 147.32575 | 13301 ft | 356 kts | 139° |
| 2026-04-26 07:16 | -42.38451 | 147.34847 | 12770 ft | 352 kts | 139° |
| 2026-04-26 07:16 | -42.40228 | 147.37117 | 12198 ft | 350 kts | 139° |
| 2026-04-26 07:16 | -42.41982 | 147.39365 | 11670 ft | 346 kts | 139° |
| 2026-04-26 07:17 | -42.43719 | 147.41592 | 11190 ft | 345 kts | 139° |
| 2026-04-26 07:17 | -42.45476 | 147.43846 | 10581 ft | 351 kts | 139° |
| 2026-04-26 07:17 | -42.47260 | 147.46135 | 9961 ft | 355 kts | 139° |
| 2026-04-26 07:17 | -42.49052 | 147.48434 | 9466 ft | 353 kts | 139° |
| 2026-04-26 07:18 | -42.50797 | 147.50682 | 9033 ft | 345 kts | 139° |
| 2026-04-26 07:18 | -42.52522 | 147.52907 | 8613 ft | 336 kts | 139° |
| 2026-04-26 07:18 | -42.54199 | 147.55072 | 8202 ft | 328 kts | 139° |
| 2026-04-26 07:18 | -42.55825 | 147.57170 | 7806 ft | 321 kts | 139° |
| 2026-04-26 07:19 | -42.57446 | 147.59264 | 7410 ft | 314 kts | 139° |
| 2026-04-26 07:19 | -42.59018 | 147.61293 | 7022 ft | 308 kts | 139° |
| 2026-04-26 07:19 | -42.60546 | 147.63264 | 6646 ft | 301 kts | 139° |
| 2026-04-26 07:19 | -42.62048 | 147.65204 | 6274 ft | 296 kts | 137° |
| 2026-04-26 07:20 | -42.63521 | 147.67108 | 5905 ft | 290 kts | 137° |
| 2026-04-26 07:20 | -42.64974 | 147.68991 | 5541 ft | 285 kts | 137° |
| 2026-04-26 07:20 | -42.66392 | 147.70830 | 5192 ft | 280 kts | 137° |
| 2026-04-26 07:20 | -42.67857 | 147.72527 | 4888 ft | 271 kts | 147° |
| 2026-04-26 07:21 | -42.69490 | 147.73523 | 4769 ft | 248 kts | 175° |
| 2026-04-26 07:21 | -42.71163 | 147.73496 | 4463 ft | 236 kts | 193° |
| 2026-04-26 07:21 | -42.72748 | 147.73163 | 4215 ft | 227 kts | 193° |
| 2026-04-26 07:21 | -42.74275 | 147.72881 | 4136 ft | 213 kts | 192° |
| 2026-04-26 07:22 | -42.75715 | 147.72675 | 4082 ft | 202 kts | 191° |
| 2026-04-26 07:22 | -42.77112 | 147.72485 | 4024 ft | 204 kts | 191° |
| 2026-04-26 07:22 | -42.78530 | 147.72293 | 3956 ft | 204 kts | 191° |
| 2026-04-26 07:22 | -42.79959 | 147.72104 | 3880 ft | 205 kts | 190° |
| 2026-04-26 07:23 | -42.81344 | 147.71854 | 3725 ft | 194 kts | 200° |
| 2026-04-26 07:23 | -42.82491 | 147.71095 | 3548 ft | 178 kts | 223° |
| 2026-04-26 07:23 | -42.83452 | 147.70059 | 3281 ft | 175 kts | 224° |
| 2026-04-26 07:23 | -42.84421 | 147.69070 | 3047 ft | 173 kts | 220° |
| 2026-04-26 07:24 | -42.85399 | 147.68127 | 2823 ft | 172 kts | 220° |
| 2026-04-26 07:24 | -42.86370 | 147.67201 | 2617 ft | 169 kts | 220° |
| 2026-04-26 07:24 | -42.87311 | 147.66260 | 2514 ft | 164 kts | 224° |
| 2026-04-26 07:24 | -42.88072 | 147.65118 | 2486 ft | 164 kts | 239° |
| 2026-04-26 07:25 | -42.88587 | 147.63727 | 2231 ft | 161 kts | 251° |
| 2026-04-26 07:25 | -42.88884 | 147.62311 | 1995 ft | 154 kts | 261° |
| 2026-04-26 07:25 | -42.88949 | 147.60879 | 1709 ft | 150 kts | 275° |
| 2026-04-26 07:25 | -42.88776 | 147.59480 | 1474 ft | 151 kts | 284° |
| 2026-04-26 07:26 | -42.88417 | 147.58138 | 1248 ft | 149 kts | 296° |
| 2026-04-26 07:26 | -42.87846 | 147.56973 | 997 ft | 148 kts | 308° |
| 2026-04-26 07:26 | -42.87141 | 147.55971 | 751 ft | 147 kts | 316° |
| 2026-04-26 07:26 | -42.86414 | 147.54994 | 544 ft | 146 kts | 312° |
| 2026-04-26 07:27 | -42.85688 | 147.53999 | 377 ft | 148 kts | 313° |
| 2026-04-26 07:27 | -42.84967 | 147.53009 | 183 ft | 146 kts | 314° |
| 2026-04-26 07:27 | -42.84256 | 147.52046 | 31 ft | 137 kts | 314° |
| 2026-04-26 07:27 | -42.83754 | 147.51361 | 25 ft | 69 kts | 317° |
| 2026-04-26 07:28 | -42.83470 | 147.50987 | 25 ft | 54 kts | 316° |
| 2026-04-26 07:28 | -42.83322 | 147.50694 | 23 ft | 27 kts | 264° |
| 2026-04-26 07:28 | -42.83445 | 147.50592 | 24 ft | 22 kts | 147° |
| 2026-04-26 07:28 | -42.83560 | 147.50693 | 29 ft | 17 kts | 186° |
| 2026-04-26 07:29 | -42.83579 | 147.50569 | 29 ft | 15 kts | 289° |
| 2026-04-26 07:29 | -42.83588 | 147.50514 | 28 ft | 2 kts | 227° |
| 2026-04-26 07:29 | -42.83596 | 147.50503 | 28 ft | 0 kts | 224° |